Details From LERS - Reus
To LFMK - Salvaza
Flight Number -
Tags generated
Created
Modified
Stats Distance 135 nm / 250 km
Max Altitude 15,200 ft / 4,633 m
Waypoints 3
Social Downloads 1
Likes 0
Share VATSIM

Download

Looking for another format? Having issues loading an existing format? Contact us
Advertisement - Login to hide

Notes

Basic altitude profile: - Ascent Rate: 2500ft/min - Ascent Speed: 250kts - Cruise Altitude: 35000ft - Cruise Speed: 420kts - Descent Rate: 1500ft/min - Descent Speed: 250kts Options: - Use NATs: yes - Use PACOTS: yes - Use low airways: yes - Use high airways: no

Route

LERS LATRO LFMK

ID Type Via Altitude Latitude Longitude Leg Dist Tot Dist Heading (true) Name
O LERS APT - 0 ft / 0 m 41.14462˚ 1.16551˚ - 0 nm - Reus
LATRO FIX - 15,200 ft / 4,633 m 41.77168˚ 1.61830˚ 42 nm 42 nm 28° / 29° -
O LFMK APT - 0 ft / 0 m 43.21612˚ 2.30550˚ 91 nm 134 nm 19° / 20° Salvaza

Altitude Profile

Advertisement - Login to hide

LERS

Details ICAO LERS (REU)
Name Reus
Region Spain
Timezone Europe/Madrid (UTC+1.0)
Stats Elevation 0 ft / 0 m (AMSL)
Location 41.144615° 1.165505°
Runways 2
Magnetic Variation 0.589° E

METAR

LERS 111330Z 26008KT 9999 FEW045 14/06 Q0991

Decode

TAF

TAF LERS 110800Z 1109/1209 27008KT 9999 SCT040 TX16/1109Z TN01/1206Z TEMPO 1109/1115 29015G30KT TEMPO 1109/1113 RA

Decode

Departure Runways

ID Width Length Bearing (true) Bearing (mag) Surface Threshold Offset Overrun Length
12 115 ft / 35 m 3,120 ft / 951 m 290.95° 290.36° Grass 0 ft / 0 m 0 ft / 0 m
25 148 ft / 45 m 8,062 ft / 2,457 m 248.91° 248.32° Asphalt 0 ft / 0 m 0 ft / 0 m
30 115 ft / 35 m 3,120 ft / 951 m 110.95° 110.36° Grass 0 ft / 0 m 0 ft / 0 m
7 148 ft / 45 m 8,062 ft / 2,457 m 68.89° 68.30° Asphalt 883 ft / 269 m 0 ft / 0 m

LFMK

Details ICAO LFMK (CCF)
Name Salvaza
Region France
Timezone Europe/Paris (UTC+1.0)
Stats Elevation 433 ft / 132 m (AMSL)
Location 43.216122° 2.305496°
Runways 1
Magnetic Variation 0.834° E

METAR

LFMK 111330Z AUTO 28010KT 9999 -RA OVC060 07/06 Q0991 TEMPO VRB15G25KT SHRA BKN013TCU

Decode

TAF

TAF LFMK 110800Z 1109/1209 28012KT 9999 BKN020 TEMPO 1109/1115 VRB15G25KT SHRA BKN013TCU BECMG 1115/1117 VRB02KT NSC BECMG 1120/1122 30012KT TEMPO 1200/1209 1200 SHRA BR BKN004 BKN020TCU

Decode

Destination Runways

ID Width Length Bearing (true) Bearing (mag) Surface Threshold Offset Overrun Length
10 148 ft / 45 m 6,869 ft / 2,094 m 96.20° 95.37° Asphalt 479 ft / 146 m 0 ft / 0 m
28 148 ft / 45 m 6,869 ft / 2,094 m 276.22° 275.39° Asphalt 492 ft / 150 m 0 ft / 0 m

Approach Navaids

Runway Type Ident Frequency Range Bearing (true) Bearing (mag) Slope Elevation
10 Localiser CS 111.10 MHz 27 nm / 50 km 96.29° 95.46° - 433 ft / 132 m (AMSL)
10 Glidescope CS 111.10 MHz 27 nm / 50 km 96.29° 95.46° 3.00° 433 ft / 132 m (AMSL)
10 DME CS 111.10 MHz 27 nm / 50 km - - - 433 ft / 132 m (AMSL)